createdAt,value
2023-02-23T00:01:24.991Z,98044.31
2023-02-23T00:04:31.284Z,98038.34
2023-02-23T00:07:38.002Z,98045.00
2023-02-23T00:10:44.777Z,98043.09
2023-02-23T00:13:54.225Z,98041.88
2023-02-23T00:17:03.031Z,98027.84
2023-02-23T00:20:16.816Z,98043.81
2023-02-23T00:23:22.798Z,98036.66
2023-02-23T00:26:35.361Z,98033.78
2023-02-23T00:29:41.485Z,98042.72
2023-02-23T00:32:50.966Z,98036.63
2023-02-23T00:35:57.728Z,98040.31
2023-02-23T00:39:18.766Z,98034.03
2023-02-23T00:42:24.825Z,98038.53
2023-02-23T00:45:34.062Z,98038.53
2023-02-23T00:48:42.547Z,98032.47
2023-02-23T00:51:50.402Z,98030.66
2023-02-23T00:54:56.255Z,98033.75
2023-02-23T00:58:04.747Z,98031.13
2023-02-23T01:01:13.126Z,98017.88
2023-02-23T01:04:23.197Z,98030.63
2023-02-23T01:07:29.360Z,98034.56
2023-02-23T01:10:41.022Z,98037.75
2023-02-23T01:13:50.053Z,98029.56
2023-02-23T01:16:58.682Z,98030.59
2023-02-23T01:20:16.284Z,98031.81
2023-02-23T01:23:23.038Z,98025.63
2023-02-23T01:26:34.226Z,98021.88
2023-02-23T01:29:41.534Z,98024.38
2023-02-23T01:32:48.885Z,98008.91
2023-02-23T01:36:04.937Z,98017.09
2023-02-23T01:39:21.826Z,98012.09
2023-02-23T01:42:30.058Z,98006.03
2023-02-23T01:45:40.565Z,98003.34
2023-02-23T01:48:48.683Z,98003.59
2023-02-23T01:52:08.313Z,97989.00
2023-02-23T01:55:23.786Z,97991.19
2023-02-23T01:58:33.949Z,97990.69
2023-02-23T02:01:41.003Z,97987.72
2023-02-23T02:04:53.351Z,97988.31
2023-02-23T02:08:06.620Z,97986.91
2023-02-23T02:11:31.074Z,97983.84
2023-02-23T02:14:40.436Z,97983.34
2023-02-23T02:18:09.614Z,97980.84
2023-02-23T02:22:11.692Z,97966.91
2023-02-23T02:25:47.736Z,97972.94
2023-02-23T02:29:39.694Z,97970.22
2023-02-23T02:33:35.690Z,97972.56
2023-02-23T02:37:28.954Z,97970.72
2023-02-23T02:40:53.621Z,97969.25
2023-02-23T02:44:21.371Z,97969.78
2023-02-23T02:47:37.625Z,97975.00
2023-02-23T02:50:56.481Z,97971.06
2023-02-23T02:54:17.578Z,97968.72
2023-02-23T02:57:30.707Z,97959.22
2023-02-23T03:00:55.078Z,97969.66
2023-02-23T03:04:20.380Z,97962.31
2023-02-23T03:07:51.395Z,97962.78
2023-02-23T03:11:22.404Z,97967.00
2023-02-23T03:15:02.418Z,97966.13
2023-02-23T03:18:44.069Z,97960.25
2023-02-23T03:22:15.487Z,97961.53
2023-02-23T03:25:44.876Z,97971.16
2023-02-23T03:29:21.295Z,97960.72
2023-02-23T03:32:49.281Z,97959.06
2023-02-23T03:36:24.844Z,97959.06
2023-02-23T03:39:55.819Z,97949.84
2023-02-23T03:43:26.597Z,97957.91
2023-02-23T03:46:52.919Z,97963.00
2023-02-23T03:50:20.226Z,97967.22
2023-02-23T03:53:49.929Z,97961.47
2023-02-23T03:57:17.489Z,97969.97
2023-02-23T04:00:45.900Z,97963.03
2023-02-23T04:04:13.408Z,97963.13
2023-02-23T04:07:35.821Z,97967.72
2023-02-23T04:11:08.537Z,97963.44
2023-02-23T04:14:24.009Z,97961.16
2023-02-23T04:17:33.169Z,97958.38
2023-02-23T04:20:42.132Z,97956.47
2023-02-23T04:23:48.932Z,97956.47
2023-02-23T04:26:54.741Z,97959.50
2023-02-23T04:30:07.873Z,97959.72
2023-02-23T04:33:15.872Z,97947.84
2023-02-23T04:36:25.215Z,97945.03
2023-02-23T04:39:31.074Z,97943.00
2023-02-23T04:42:43.455Z,97948.88
2023-02-23T04:45:49.639Z,97943.94
2023-02-23T04:48:56.856Z,97942.50
2023-02-23T04:52:07.859Z,97946.63
2023-02-23T04:55:22.338Z,97947.22
2023-02-23T04:58:28.300Z,97951.38
2023-02-23T05:01:37.477Z,97948.09
2023-02-23T05:04:43.443Z,97948.94
2023-02-23T05:07:53.899Z,97954.47
2023-02-23T05:10:59.933Z,97956.03
2023-02-23T05:14:06.935Z,97953.41
2023-02-23T05:17:13.122Z,97955.84
2023-02-23T05:20:19.903Z,97948.72
2023-02-23T05:23:30.572Z,97943.19
2023-02-23T05:26:37.683Z,97946.09
2023-02-23T05:29:44.372Z,97941.63
2023-02-23T05:32:51.742Z,97950.72
2023-02-23T05:35:57.721Z,97944.34
2023-02-23T05:39:11.379Z,97948.56
2023-02-23T05:42:17.319Z,97946.25
2023-02-23T05:45:30.433Z,97954.19
2023-02-23T05:48:37.048Z,97960.94
2023-02-23T05:51:44.377Z,97956.63
2023-02-23T05:54:53.523Z,97958.19
2023-02-23T05:58:00.674Z,97958.56
2023-02-23T06:01:09.292Z,97962.19
2023-02-23T06:04:17.632Z,97961.78
2023-02-23T06:07:23.496Z,97958.88
2023-02-23T06:10:32.837Z,97963.75
2023-02-23T06:13:38.955Z,97972.63
2023-02-23T06:16:48.715Z,97972.47
2023-02-23T06:19:54.813Z,97969.97
2023-02-23T06:23:01.536Z,97964.75
2023-02-23T06:26:15.548Z,97964.31
2023-02-23T06:29:23.165Z,97972.00
2023-02-23T06:32:29.586Z,97976.44
2023-02-23T06:35:41.282Z,97975.16
2023-02-23T06:38:47.974Z,97979.88
2023-02-23T06:41:57.260Z,97981.13
2023-02-23T06:45:04.925Z,97981.34
2023-02-23T06:48:11.755Z,97979.84
2023-02-23T06:51:19.146Z,97956.88
2023-02-23T06:54:26.692Z,97975.72
2023-02-23T06:57:35.426Z,97974.69
2023-02-23T07:00:48.956Z,97984.09
2023-02-23T07:03:54.893Z,97973.22
2023-02-23T07:07:03.928Z,97970.78
2023-02-23T07:10:12.348Z,97978.22
2023-02-23T07:13:22.441Z,97979.69
2023-02-23T07:16:30.714Z,97978.06
2023-02-23T07:19:38.490Z,97983.56
2023-02-23T07:22:44.475Z,97980.16
2023-02-23T07:25:54.263Z,97973.13
2023-02-23T07:29:02.875Z,97978.59
2023-02-23T07:32:09.802Z,97965.13
2023-02-23T07:35:16.367Z,97982.63
2023-02-23T07:38:26.549Z,97975.50
2023-02-23T07:41:32.548Z,97976.22
2023-02-23T07:44:43.471Z,97977.06
2023-02-23T07:47:49.582Z,97973.13
2023-02-23T07:50:58.706Z,97965.22
2023-02-23T07:54:07.724Z,97967.38
2023-02-23T07:57:14.460Z,97964.78
2023-02-23T08:00:29.316Z,97961.66
2023-02-23T08:03:39.044Z,97966.88
2023-02-23T08:06:45.045Z,97970.03
2023-02-23T08:09:52.580Z,97967.59
2023-02-23T08:12:58.521Z,97968.19
2023-02-23T08:16:08.944Z,97970.19
2023-02-23T08:19:15.003Z,97969.03
2023-02-23T08:22:21.747Z,97969.22
2023-02-23T08:25:28.384Z,97964.28
2023-02-23T08:28:35.790Z,97960.22
2023-02-23T08:31:45.026Z,97968.56
2023-02-23T08:35:01.936Z,97960.94
2023-02-23T08:38:10.310Z,97958.91
2023-02-23T08:41:22.003Z,97958.91
2023-02-23T08:44:28.485Z,97958.66
2023-02-23T08:47:41.937Z,97961.34
2023-02-23T08:50:50.039Z,97955.06
2023-02-23T08:53:57.380Z,97957.41
2023-02-23T08:57:12.445Z,97957.84
2023-02-23T09:00:27.940Z,97951.88
2023-02-23T09:03:40.473Z,97960.63
2023-02-23T09:06:49.716Z,97969.63
2023-02-23T09:10:02.936Z,97970.03
2023-02-23T09:13:09.821Z,97962.94
2023-02-23T09:16:17.477Z,97953.56
2023-02-23T09:19:27.835Z,97952.25
2023-02-23T09:22:36.889Z,97954.38
2023-02-23T09:25:49.045Z,97956.47
2023-02-23T09:28:55.324Z,97960.03
2023-02-23T09:32:02.228Z,97958.09
2023-02-23T09:35:18.421Z,97954.19
2023-02-23T09:38:26.195Z,97945.34
2023-02-23T09:42:20.155Z,97947.56
2023-02-23T09:45:45.196Z,97945.47
2023-02-23T09:48:54.680Z,97949.78
2023-02-23T09:52:11.810Z,97948.63
2023-02-23T09:55:20.197Z,97949.63
2023-02-23T09:58:30.749Z,97952.47
2023-02-23T10:02:05.675Z,97956.72
2023-02-23T10:05:18.343Z,97957.00
2023-02-23T10:08:51.692Z,97956.94
2023-02-23T10:12:13.353Z,97954.78
2023-02-23T10:15:39.135Z,97956.63
2023-02-23T10:19:04.237Z,97951.75
2023-02-23T10:22:15.970Z,97959.63
2023-02-23T10:25:34.286Z,97949.44
2023-02-23T10:28:41.220Z,97953.47
2023-02-23T10:31:58.016Z,97958.94
2023-02-23T10:35:08.747Z,97942.56
2023-02-23T10:38:21.694Z,97952.53
2023-02-23T10:41:30.238Z,97939.59
2023-02-23T10:44:37.493Z,97937.13
2023-02-23T10:47:45.386Z,97928.84
2023-02-23T10:51:00.562Z,97920.16
2023-02-23T10:54:47.862Z,97925.50
2023-02-23T10:58:17.208Z,97931.50
2023-02-23T11:02:01.944Z,97914.09
2023-02-23T11:05:28.800Z,97910.06
2023-02-23T11:08:37.035Z,97905.63
2023-02-23T11:11:43.780Z,97901.47
2023-02-23T11:14:54.565Z,97898.47
2023-02-23T11:18:04.883Z,97895.00
2023-02-23T11:21:20.669Z,97890.41
2023-02-23T11:24:32.683Z,97892.16
2023-02-23T11:27:39.954Z,97878.06
2023-02-23T11:30:50.046Z,97884.91
2023-02-23T11:33:59.926Z,97884.03
2023-02-23T11:37:21.806Z,97876.69
2023-02-23T11:40:31.779Z,97874.78
2023-02-23T11:43:38.981Z,97879.41
2023-02-23T11:46:47.660Z,97871.31
2023-02-23T11:49:57.151Z,97870.31
2023-02-23T11:53:09.709Z,97877.09
2023-02-23T11:56:26.171Z,97871.41
2023-02-23T11:59:38.021Z,97870.31
2023-02-23T12:02:58.825Z,97872.66
2023-02-23T12:06:05.243Z,97864.69
2023-02-23T12:09:26.755Z,97857.88
2023-02-23T12:12:43.084Z,97855.06
2023-02-23T12:16:01.805Z,97851.72
2023-02-23T12:19:31.709Z,97852.59
2023-02-23T12:22:49.713Z,97840.16
2023-02-23T12:26:04.667Z,97833.72
2023-02-23T12:29:31.688Z,97839.69
2023-02-23T12:32:51.598Z,97840.00
2023-02-23T12:36:12.357Z,97825.44
2023-02-23T12:39:30.944Z,97821.31
2023-02-23T12:42:52.530Z,97805.56
2023-02-23T12:46:11.481Z,97802.94
2023-02-23T12:49:33.194Z,97807.38
2023-02-23T12:52:51.724Z,97808.06
2023-02-23T12:56:21.405Z,97803.59
2023-02-23T13:00:04.505Z,97792.50
2023-02-23T13:04:01.456Z,97783.06
2023-02-23T13:07:23.689Z,97785.69
2023-02-23T13:10:52.733Z,97783.13
2023-02-23T13:14:15.290Z,97774.34
2023-02-23T13:17:40.252Z,97764.06
2023-02-23T13:20:57.216Z,97774.06
2023-02-23T13:24:19.181Z,97773.81
2023-02-23T13:27:39.656Z,97770.03
2023-02-23T13:30:47.938Z,97766.97
2023-02-23T13:33:56.535Z,97766.22
2023-02-23T13:37:10.133Z,97764.00
2023-02-23T13:40:34.618Z,97761.00
2023-02-23T13:43:58.889Z,97762.28
2023-02-23T13:47:25.224Z,97760.28
2023-02-23T13:50:45.537Z,97752.59
2023-02-23T13:54:06.386Z,97750.00
2023-02-23T13:57:19.982Z,97747.97
2023-02-23T14:00:28.915Z,97737.81
2023-02-23T14:03:50.244Z,97741.56
2023-02-23T14:07:08.423Z,97743.22
2023-02-23T14:10:26.043Z,97733.56
2023-02-23T14:13:36.160Z,97727.47
2023-02-23T14:16:46.762Z,97733.09
2023-02-23T14:20:29.672Z,97732.38
2023-02-23T14:23:52.027Z,97726.72
2023-02-23T14:27:40.365Z,97710.22
2023-02-23T14:30:52.569Z,97726.47
2023-02-23T14:34:10.684Z,97711.84
2023-02-23T14:37:31.912Z,97722.72
2023-02-23T14:40:47.253Z,97718.25
2023-02-23T14:44:05.440Z,97713.00
2023-02-23T14:47:18.831Z,97723.59
2023-02-23T14:50:35.162Z,97718.94
2023-02-23T14:53:43.498Z,97717.69
2023-02-23T14:56:51.493Z,97705.78
2023-02-23T15:00:05.194Z,97704.59
2023-02-23T15:03:15.128Z,97701.91
2023-02-23T15:06:23.870Z,97700.94
2023-02-23T15:09:42.835Z,97706.00
2023-02-23T15:12:51.294Z,97697.06
2023-02-23T15:16:00.964Z,97691.47
2023-02-23T15:19:09.464Z,97680.28
2023-02-23T15:22:31.007Z,97684.63
2023-02-23T15:25:41.727Z,97679.63
2023-02-23T15:28:50.254Z,97681.41
2023-02-23T15:31:58.748Z,97675.47
2023-02-23T15:35:16.043Z,97683.91
2023-02-23T15:38:43.047Z,97669.38
2023-02-23T15:41:53.545Z,97670.63
2023-02-23T15:45:11.164Z,97672.28
2023-02-23T15:48:23.335Z,97662.34
2023-02-23T15:51:40.086Z,97660.41
2023-02-23T15:55:00.599Z,97661.25
2023-02-23T15:58:23.759Z,97660.63
2023-02-23T16:01:33.799Z,97659.97
2023-02-23T16:04:48.849Z,97656.69
2023-02-23T16:08:11.658Z,97658.69
2023-02-23T16:11:22.595Z,97661.50
2023-02-23T16:14:53.443Z,97657.22
2023-02-23T16:18:08.029Z,97652.44
2023-02-23T16:21:24.075Z,97656.75
2023-02-23T16:24:32.698Z,97659.03
2023-02-23T16:27:42.892Z,97659.84
2023-02-23T16:31:05.022Z,97650.44
2023-02-23T16:34:27.358Z,97658.72
2023-02-23T16:37:33.509Z,97649.97
2023-02-23T16:40:43.185Z,97661.69
2023-02-23T16:43:58.187Z,97657.19
2023-02-23T16:47:36.675Z,97653.56
2023-02-23T16:50:43.551Z,97653.75
2023-02-23T16:53:52.512Z,97652.06
2023-02-23T16:57:25.422Z,97653.88
2023-02-23T17:00:37.392Z,97661.97
2023-02-23T17:03:52.694Z,97656.63
2023-02-23T17:07:04.960Z,97656.63
2023-02-23T17:10:25.212Z,97655.81
2023-02-23T17:13:35.936Z,97654.66
2023-02-23T17:16:44.850Z,97656.28
2023-02-23T17:19:51.671Z,97667.06
2023-02-23T17:22:59.749Z,97658.97
2023-02-23T17:26:06.875Z,97657.97
2023-02-23T17:29:13.054Z,97652.38
2023-02-23T17:32:24.565Z,97658.00
2023-02-23T17:35:33.759Z,97646.09
2023-02-23T17:38:48.490Z,97658.69
2023-02-23T17:41:54.356Z,97651.59
2023-02-23T17:45:13.968Z,97648.41
2023-02-23T17:48:22.597Z,97651.78
2023-02-23T17:51:33.203Z,97645.16
2023-02-23T17:54:39.194Z,97650.78
2023-02-23T17:57:46.443Z,97651.59
2023-02-23T18:00:52.565Z,97651.78
2023-02-23T18:04:01.980Z,97653.44
2023-02-23T18:07:12.177Z,97649.63
2023-02-23T18:10:19.323Z,97637.22
2023-02-23T18:13:27.103Z,97650.09
2023-02-23T18:16:34.887Z,97640.19
2023-02-23T18:19:44.577Z,97640.81
2023-02-23T18:22:52.183Z,97642.84
2023-02-23T18:26:01.550Z,97628.28
2023-02-23T18:29:08.840Z,97615.88
2023-02-23T18:32:15.507Z,97626.97
2023-02-23T18:35:25.001Z,97627.25
2023-02-23T18:38:31.011Z,97624.59
2023-02-23T18:41:38.863Z,97612.88
2023-02-23T18:44:44.968Z,97615.72
2023-02-23T18:47:51.961Z,97601.38
2023-02-23T18:51:01.856Z,97611.94
2023-02-23T18:54:11.672Z,97595.25
2023-02-23T18:57:25.527Z,97599.22
2023-02-23T19:00:40.365Z,97598.72
2023-02-23T19:03:47.809Z,97598.38
2023-02-23T19:06:57.467Z,97592.09
2023-02-23T19:10:06.331Z,97595.06
2023-02-23T19:13:22.377Z,97600.66
2023-02-23T19:16:33.058Z,97590.25
2023-02-23T19:19:40.037Z,97588.44
2023-02-23T19:22:50.008Z,97589.78
2023-02-23T19:26:02.736Z,97584.97
2023-02-23T19:29:09.447Z,97589.94
2023-02-23T19:32:20.710Z,97577.22
2023-02-23T19:35:26.931Z,97584.66
2023-02-23T19:38:36.631Z,97583.19
2023-02-23T19:41:44.050Z,97582.53
2023-02-23T19:44:50.921Z,97582.03
2023-02-23T19:47:57.934Z,97591.44
2023-02-23T19:51:05.551Z,97586.63
2023-02-23T19:54:17.666Z,97577.41
2023-02-23T19:57:28.470Z,97575.09
2023-02-23T20:00:35.259Z,97579.72
2023-02-23T20:03:43.728Z,97572.47
2023-02-23T20:06:49.940Z,97567.34
2023-02-23T20:09:59.520Z,97567.00
2023-02-23T20:13:05.562Z,97565.69
2023-02-23T20:16:17.647Z,97568.81
2023-02-23T20:19:24.620Z,97567.19
2023-02-23T20:22:33.578Z,97565.50
2023-02-23T20:25:45.114Z,97559.88
2023-02-23T20:28:53.568Z,97556.91
2023-02-23T20:32:00.138Z,97556.25
2023-02-23T20:35:17.466Z,97552.25
2023-02-23T20:38:23.927Z,97548.28
2023-02-23T20:41:33.968Z,97546.28
2023-02-23T20:44:40.657Z,97546.09
2023-02-23T20:47:52.300Z,97539.81
2023-02-23T20:51:00.178Z,97536.66
2023-02-23T20:54:08.198Z,97536.44
2023-02-23T20:57:16.765Z,97525.22
2023-02-23T21:00:33.332Z,97534.41
2023-02-23T21:03:39.408Z,97532.94
2023-02-23T21:06:46.266Z,97536.25
2023-02-23T21:09:55.421Z,97536.09
2023-02-23T21:13:05.358Z,97520.56
2023-02-23T21:16:15.413Z,97529.00
2023-02-23T21:19:22.265Z,97516.72
2023-02-23T21:22:28.291Z,97516.03
2023-02-23T21:25:35.336Z,97525.22
2023-02-23T21:28:45.133Z,97521.25
2023-02-23T21:31:52.053Z,97516.00
2023-02-23T21:34:58.327Z,97518.34
2023-02-23T21:38:05.482Z,97513.03
2023-02-23T21:41:13.468Z,97511.66
2023-02-23T21:44:23.134Z,97509.84
2023-02-23T21:47:29.262Z,97498.25
2023-02-23T21:50:35.995Z,97501.03
2023-02-23T21:53:43.632Z,97501.25
2023-02-23T21:56:50.716Z,97497.16
2023-02-23T21:59:59.811Z,97498.38
2023-02-23T22:03:06.866Z,97492.59
2023-02-23T22:06:12.850Z,97488.28
2023-02-23T22:09:19.684Z,97489.66
2023-02-23T22:12:27.694Z,97483.97
2023-02-23T22:15:37.056Z,97486.31
2023-02-23T22:18:44.054Z,97476.06
2023-02-23T22:21:51.063Z,97473.44
2023-02-23T22:24:56.939Z,97477.41
2023-02-23T22:28:04.194Z,97466.66
2023-02-23T22:31:16.626Z,97464.34
2023-02-23T22:34:23.568Z,97462.34
2023-02-23T22:37:31.763Z,97451.56
2023-02-23T22:40:42.359Z,97449.97
2023-02-23T22:43:50.694Z,97452.09
2023-02-23T22:47:00.221Z,97447.97
2023-02-23T22:50:07.125Z,97451.28
2023-02-23T22:53:14.627Z,97451.63
2023-02-23T22:56:20.518Z,97446.00
2023-02-23T22:59:28.768Z,97446.97
2023-02-23T23:02:37.313Z,97450.88
2023-02-23T23:05:43.971Z,97439.84
2023-02-23T23:08:50.119Z,97438.47
2023-02-23T23:11:56.895Z,97442.19
2023-02-23T23:15:03.355Z,97426.66
2023-02-23T23:18:14.170Z,97435.88
2023-02-23T23:21:24.004Z,97427.97
2023-02-23T23:24:30.838Z,97426.16
2023-02-23T23:27:37.455Z,97416.72
2023-02-23T23:30:47.338Z,97415.81
2023-02-23T23:34:00.062Z,97410.97
2023-02-23T23:37:06.914Z,97405.50
2023-02-23T23:40:18.335Z,97405.47
2023-02-23T23:43:25.596Z,97401.09
2023-02-23T23:46:35.749Z,97404.25
2023-02-23T23:49:45.627Z,97399.31
2023-02-23T23:52:52.021Z,97400.19
2023-02-23T23:55:59.130Z,97390.06
2023-02-23T23:59:07.433Z,97389.72
